createdAt,value
2018-06-11T00:01:33.487Z,949.54
2018-06-11T00:03:59.779Z,949.51
2018-06-11T00:06:26.069Z,949.54
2018-06-11T00:08:52.360Z,949.52
2018-06-11T00:11:18.658Z,949.54
2018-06-11T00:13:44.949Z,949.52
2018-06-11T00:16:11.280Z,949.56
2018-06-11T00:18:37.568Z,949.55
2018-06-11T00:21:03.862Z,949.59
2018-06-11T00:23:30.157Z,949.61
2018-06-11T00:25:56.489Z,949.53
2018-06-11T00:28:22.775Z,949.58
2018-06-11T00:30:49.068Z,949.56
2018-06-11T00:33:15.367Z,949.57
2018-06-11T00:35:41.656Z,949.53
2018-06-11T00:38:07.948Z,949.49
2018-06-11T00:40:34.236Z,949.58
2018-06-11T00:43:00.526Z,949.57
2018-06-11T00:45:26.815Z,949.57
2018-06-11T00:47:53.110Z,949.60
2018-06-11T00:50:19.404Z,949.60
2018-06-11T00:52:45.698Z,949.66
2018-06-11T00:55:12.022Z,949.66
2018-06-11T00:57:38.312Z,949.63
2018-06-11T01:00:04.645Z,949.61
2018-06-11T01:02:30.939Z,949.55
2018-06-11T01:04:57.228Z,949.66
2018-06-11T01:07:23.564Z,949.54
2018-06-11T01:09:49.850Z,949.57
2018-06-11T01:12:16.186Z,949.49
2018-06-11T01:14:42.478Z,949.49
2018-06-11T01:17:08.821Z,949.46
2018-06-11T01:19:35.108Z,949.38
2018-06-11T01:22:01.411Z,949.42
2018-06-11T01:24:27.698Z,949.43
2018-06-11T01:26:54.032Z,949.35
2018-06-11T01:29:20.390Z,949.37
2018-06-11T01:31:46.685Z,949.31
2018-06-11T01:34:12.976Z,949.31
2018-06-11T01:36:39.269Z,949.36
2018-06-11T01:39:05.568Z,949.37
2018-06-11T01:41:31.851Z,949.34
2018-06-11T01:43:58.142Z,949.37
2018-06-11T01:46:24.445Z,949.36
2018-06-11T01:48:50.754Z,949.38
2018-06-11T01:51:17.039Z,949.38
2018-06-11T01:53:43.334Z,949.39
2018-06-11T01:56:09.631Z,949.35
2018-06-11T01:58:35.697Z,949.40
2018-06-11T02:01:01.997Z,949.39
2018-06-11T02:03:28.315Z,949.35
2018-06-11T02:05:54.598Z,949.34
2018-06-11T02:08:20.892Z,949.39
2018-06-11T02:10:47.183Z,949.45
2018-06-11T02:13:13.476Z,949.44
2018-06-11T02:15:39.766Z,949.42
2018-06-11T02:18:06.055Z,949.44
2018-06-11T02:20:32.354Z,949.51
2018-06-11T02:22:58.694Z,949.56
2018-06-11T02:25:25.027Z,949.56
2018-06-11T02:27:51.356Z,949.61
2018-06-11T02:30:17.684Z,949.52
2018-06-11T02:32:43.982Z,949.53
2018-06-11T02:35:10.276Z,949.41
2018-06-11T02:37:36.570Z,949.46
2018-06-11T02:40:02.875Z,949.47
2018-06-11T02:42:29.204Z,949.45
2018-06-11T02:44:55.497Z,949.42
2018-06-11T02:47:21.833Z,949.39
2018-06-11T02:49:48.125Z,949.40
2018-06-11T02:52:14.459Z,949.48
2018-06-11T02:54:40.748Z,949.51
2018-06-11T02:57:07.035Z,949.55
2018-06-11T02:59:33.330Z,949.56
2018-06-11T03:01:59.626Z,949.55
2018-06-11T03:04:25.919Z,949.62
2018-06-11T03:06:52.204Z,949.63
2018-06-11T03:09:18.500Z,949.67
2018-06-11T03:11:44.782Z,949.67
2018-06-11T03:14:11.111Z,949.68
2018-06-11T03:16:37.403Z,949.66
2018-06-11T03:19:03.688Z,949.74
2018-06-11T03:21:29.981Z,949.74
2018-06-11T03:23:56.267Z,949.77
2018-06-11T03:26:22.557Z,949.75
2018-06-11T03:28:48.855Z,949.77
2018-06-11T03:31:15.183Z,949.77
2018-06-11T03:33:41.470Z,949.75
2018-06-11T03:36:07.794Z,949.81
2018-06-11T03:38:34.084Z,949.82
2018-06-11T03:41:00.416Z,949.81
2018-06-11T03:43:26.711Z,949.87
2018-06-11T03:45:53.010Z,949.87
2018-06-11T03:48:19.344Z,949.90
2018-06-11T03:50:45.640Z,949.95
2018-06-11T03:53:11.927Z,949.98
2018-06-11T03:55:38.215Z,950.01
2018-06-11T03:58:04.511Z,950.02
2018-06-11T04:00:30.799Z,950.09
2018-06-11T04:02:57.088Z,950.06
2018-06-11T04:05:23.380Z,950.07
2018-06-11T04:07:49.666Z,950.16
2018-06-11T04:10:15.958Z,950.16
2018-06-11T04:12:42.248Z,950.13
2018-06-11T04:15:08.539Z,950.15
2018-06-11T04:17:34.827Z,950.22
2018-06-11T04:20:01.125Z,950.19
2018-06-11T04:22:27.416Z,950.20
2018-06-11T04:24:53.706Z,950.15
2018-06-11T04:27:20.008Z,950.21
2018-06-11T04:29:46.300Z,950.20
2018-06-11T04:32:12.590Z,950.21
2018-06-11T04:34:38.884Z,950.18
2018-06-11T04:37:05.194Z,950.19
2018-06-11T04:39:31.488Z,950.22
2018-06-11T04:41:57.781Z,950.21
2018-06-11T04:44:24.108Z,950.28
2018-06-11T04:46:50.402Z,950.22
2018-06-11T04:49:16.737Z,950.22
2018-06-11T04:51:43.077Z,950.28
2018-06-11T04:54:09.363Z,950.28
2018-06-11T04:56:35.655Z,950.26
2018-06-11T04:59:01.962Z,950.39
2018-06-11T05:01:28.253Z,950.40
2018-06-11T05:03:54.547Z,950.42
2018-06-11T05:06:20.841Z,950.39
2018-06-11T05:08:47.138Z,950.43
2018-06-11T05:11:13.433Z,950.45
2018-06-11T05:13:39.768Z,950.48
2018-06-11T05:16:06.058Z,950.47
2018-06-11T05:18:32.348Z,950.46
2018-06-11T05:20:58.644Z,950.48
2018-06-11T05:23:24.941Z,950.50
2018-06-11T05:25:51.238Z,950.56
2018-06-11T05:28:17.532Z,950.60
2018-06-11T05:30:43.827Z,950.57
2018-06-11T05:33:10.112Z,950.61
2018-06-11T05:35:36.415Z,950.59
2018-06-11T05:38:02.712Z,950.65
2018-06-11T05:40:29.030Z,950.67
2018-06-11T05:42:55.314Z,950.72
2018-06-11T05:45:21.609Z,950.78
2018-06-11T05:47:47.899Z,950.78
2018-06-11T05:50:14.197Z,950.78
2018-06-11T05:52:40.482Z,950.80
2018-06-11T05:55:06.775Z,950.85
2018-06-11T05:57:33.064Z,950.80
2018-06-11T05:59:59.357Z,950.80
2018-06-11T06:02:25.666Z,950.78
2018-06-11T06:04:52.025Z,950.74
2018-06-11T06:07:18.354Z,950.79
2018-06-11T06:09:44.641Z,950.76
2018-06-11T06:12:10.930Z,950.75
2018-06-11T06:14:37.264Z,950.77
2018-06-11T06:17:03.562Z,950.77
2018-06-11T06:19:29.897Z,950.82
2018-06-11T06:21:56.139Z,950.78
2018-06-11T06:24:22.433Z,950.76
2018-06-11T06:26:48.752Z,950.74
2018-06-11T06:29:15.012Z,950.76
2018-06-11T06:31:41.311Z,950.71
2018-06-11T06:34:07.609Z,950.67
2018-06-11T06:36:33.891Z,950.67
2018-06-11T06:39:00.183Z,950.64
2018-06-11T06:41:26.472Z,950.64
2018-06-11T06:43:52.770Z,950.59
2018-06-11T06:46:19.072Z,950.56
2018-06-11T06:48:45.358Z,950.61
2018-06-11T06:51:11.651Z,950.56
2018-06-11T06:53:37.973Z,950.60
2018-06-11T06:56:04.232Z,950.52
2018-06-11T06:58:30.524Z,950.57
2018-06-11T07:00:56.817Z,950.58
2018-06-11T07:03:23.105Z,950.51
2018-06-11T07:05:49.403Z,950.53
2018-06-11T07:08:15.693Z,950.49
2018-06-11T07:10:41.990Z,950.47
2018-06-11T07:13:08.281Z,950.45
2018-06-11T07:15:34.602Z,950.41
2018-06-11T07:18:00.904Z,950.41
2018-06-11T07:20:27.203Z,950.33
2018-06-11T07:22:53.492Z,950.36
2018-06-11T07:25:19.790Z,950.36
2018-06-11T07:27:46.075Z,950.36
2018-06-11T07:30:12.406Z,950.33
2018-06-11T07:32:38.701Z,950.29
2018-06-11T07:35:05.048Z,950.32
2018-06-11T07:37:31.377Z,950.37
2018-06-11T07:39:57.639Z,950.37
2018-06-11T07:42:23.937Z,950.38
2018-06-11T07:44:50.232Z,950.26
2018-06-11T07:47:16.524Z,950.24
2018-06-11T07:49:42.810Z,950.22
2018-06-11T07:52:09.134Z,950.20
2018-06-11T07:54:35.423Z,950.15
2018-06-11T07:57:01.717Z,950.16
2018-06-11T07:59:28.006Z,950.16
2018-06-11T08:01:54.304Z,950.20
2018-06-11T08:04:20.585Z,950.23
2018-06-11T08:06:46.874Z,950.18
2018-06-11T08:09:13.165Z,950.16
2018-06-11T08:11:39.458Z,950.14
2018-06-11T08:14:05.749Z,950.18
2018-06-11T08:16:32.044Z,950.24
2018-06-11T08:18:58.336Z,950.15
2018-06-11T08:21:24.626Z,950.11
2018-06-11T08:23:50.917Z,950.14
2018-06-11T08:26:17.242Z,950.10
2018-06-11T08:28:43.528Z,950.15
2018-06-11T08:31:09.822Z,950.15
2018-06-11T08:33:36.122Z,950.13
2018-06-11T08:36:02.414Z,950.11
2018-06-11T08:38:28.698Z,950.07
2018-06-11T08:40:54.987Z,950.07
2018-06-11T08:43:21.284Z,950.18
2018-06-11T08:45:47.616Z,950.10
2018-06-11T08:48:13.913Z,950.00
2018-06-11T08:50:40.205Z,950.07
2018-06-11T08:53:06.503Z,950.13
2018-06-11T08:55:32.801Z,950.11
2018-06-11T08:57:59.095Z,950.16
2018-06-11T09:00:25.389Z,950.09
2018-06-11T09:02:51.684Z,949.99
2018-06-11T09:05:17.970Z,950.02
2018-06-11T09:07:44.258Z,950.02
2018-06-11T09:10:10.549Z,949.99
2018-06-11T09:12:36.884Z,950.06
2018-06-11T09:15:03.125Z,950.05
2018-06-11T09:17:29.416Z,950.06
2018-06-11T09:19:55.752Z,950.04
2018-06-11T09:22:22.066Z,950.06
2018-06-11T09:24:48.349Z,950.02
2018-06-11T09:27:14.640Z,949.98
2018-06-11T09:29:40.935Z,950.04
2018-06-11T09:32:07.221Z,949.94
2018-06-11T09:34:33.511Z,949.93
2018-06-11T09:36:59.844Z,949.88
2018-06-11T09:39:26.137Z,949.97
2018-06-11T09:41:52.477Z,949.87
2018-06-11T09:44:18.760Z,949.90
2018-06-11T09:46:45.094Z,949.84
2018-06-11T09:49:11.407Z,949.94
2018-06-11T09:51:37.727Z,949.85
2018-06-11T09:54:04.015Z,949.83
2018-06-11T09:56:30.355Z,949.83
2018-06-11T09:58:56.643Z,949.82
2018-06-11T10:01:22.934Z,949.84
2018-06-11T10:03:49.265Z,949.82
2018-06-11T10:06:15.558Z,949.75
2018-06-11T10:08:41.850Z,949.84
2018-06-11T10:11:08.142Z,949.79
2018-06-11T10:13:34.481Z,949.78
2018-06-11T10:16:00.741Z,949.70
2018-06-11T10:18:27.034Z,949.74
2018-06-11T10:20:53.337Z,949.68
2018-06-11T10:23:19.636Z,949.78
2018-06-11T10:25:45.936Z,949.70
2018-06-11T10:28:12.227Z,949.67
2018-06-11T10:30:38.564Z,949.56
2018-06-11T10:33:04.855Z,949.57
2018-06-11T10:35:31.200Z,949.57
2018-06-11T10:37:57.510Z,949.52
2018-06-11T10:40:23.800Z,949.53
2018-06-11T10:42:50.099Z,949.61
2018-06-11T10:45:16.390Z,949.54
2018-06-11T10:47:42.678Z,949.55
2018-06-11T10:50:08.972Z,949.51
2018-06-11T10:52:35.260Z,949.44
2018-06-11T10:55:01.552Z,949.42
2018-06-11T10:57:27.840Z,949.37
2018-06-11T10:59:54.130Z,949.44
2018-06-11T11:02:20.418Z,949.43
2018-06-11T11:04:46.707Z,949.34
2018-06-11T11:07:12.999Z,949.26
2018-06-11T11:09:39.293Z,949.25
2018-06-11T11:12:05.589Z,949.23
2018-06-11T11:14:31.883Z,949.22
2018-06-11T11:16:58.182Z,949.25
2018-06-11T11:19:24.512Z,949.19
2018-06-11T11:21:50.859Z,949.13
2018-06-11T11:24:17.103Z,949.08
2018-06-11T11:26:43.393Z,949.15
2018-06-11T11:29:09.689Z,949.20
2018-06-11T11:31:36.035Z,948.99
2018-06-11T11:34:02.308Z,949.04
2018-06-11T11:36:28.597Z,949.02
2018-06-11T11:38:54.894Z,948.98
2018-06-11T11:41:21.225Z,948.99
2018-06-11T11:43:47.510Z,949.01
2018-06-11T11:46:13.842Z,948.98
2018-06-11T11:48:40.180Z,948.95
2018-06-11T11:51:06.483Z,948.96
2018-06-11T11:53:32.765Z,948.97
2018-06-11T11:55:59.057Z,948.91
2018-06-11T11:58:25.355Z,948.92
2018-06-11T12:00:51.677Z,948.94
2018-06-11T12:03:17.966Z,948.90
2018-06-11T12:05:44.263Z,948.82
2018-06-11T12:08:10.558Z,948.83
2018-06-11T12:10:36.890Z,948.84
2018-06-11T12:13:03.195Z,948.79
2018-06-11T12:15:29.488Z,948.83
2018-06-11T12:17:55.828Z,948.73
2018-06-11T12:20:22.122Z,948.73
2018-06-11T12:22:48.409Z,948.74
2018-06-11T12:25:14.747Z,948.65
2018-06-11T12:27:41.046Z,948.73
2018-06-11T12:30:07.335Z,948.64
2018-06-11T12:32:33.628Z,948.69
2018-06-11T12:34:59.924Z,948.71
2018-06-11T12:37:26.217Z,948.65
2018-06-11T12:39:52.511Z,948.70
2018-06-11T12:42:18.799Z,948.71
2018-06-11T12:44:45.127Z,948.66
2018-06-11T12:47:11.410Z,948.57
2018-06-11T12:49:37.748Z,948.58
2018-06-11T12:52:04.034Z,948.61
2018-06-11T12:54:30.324Z,948.51
2018-06-11T12:56:56.613Z,948.46
2018-06-11T12:59:22.939Z,948.36
2018-06-11T13:01:49.270Z,948.30
2018-06-11T13:04:15.555Z,948.31
2018-06-11T13:06:41.932Z,948.24
2018-06-11T13:09:08.196Z,948.16
2018-06-11T13:11:34.482Z,948.19
2018-06-11T13:14:00.834Z,948.22
2018-06-11T13:16:27.134Z,948.25
2018-06-11T13:18:53.423Z,948.20
2018-06-11T13:21:19.717Z,948.24
2018-06-11T13:23:46.026Z,948.21
2018-06-11T13:26:12.327Z,948.20
2018-06-11T13:28:38.624Z,948.17
2018-06-11T13:31:04.927Z,948.18
2018-06-11T13:33:31.215Z,948.10
2018-06-11T13:35:57.517Z,948.12
2018-06-11T13:38:23.807Z,948.06
2018-06-11T13:40:50.101Z,948.02
2018-06-11T13:43:16.388Z,948.06
2018-06-11T13:45:42.683Z,948.14
2018-06-11T13:48:08.976Z,948.08
2018-06-11T13:50:35.266Z,948.11
2018-06-11T13:53:01.553Z,948.00
2018-06-11T13:55:27.842Z,948.00
2018-06-11T13:57:54.130Z,948.16
2018-06-11T14:00:20.414Z,948.19
2018-06-11T14:02:46.707Z,948.20
2018-06-11T14:05:12.990Z,948.13
2018-06-11T14:07:39.282Z,948.11
2018-06-11T14:10:05.583Z,948.19
2018-06-11T14:12:31.878Z,948.25
2018-06-11T14:14:58.218Z,948.18
2018-06-11T14:17:24.505Z,948.20
2018-06-11T14:19:50.803Z,948.15
2018-06-11T14:22:17.101Z,948.20
2018-06-11T14:24:43.402Z,948.21
2018-06-11T14:27:09.699Z,948.18
2018-06-11T14:29:35.999Z,948.21
2018-06-11T14:32:02.289Z,948.11
2018-06-11T14:34:28.603Z,948.08
2018-06-11T14:36:54.892Z,948.11
2018-06-11T14:39:21.187Z,948.12
2018-06-11T14:41:47.529Z,948.01
2018-06-11T14:44:13.822Z,948.04
2018-06-11T14:46:40.114Z,947.99
2018-06-11T14:49:06.409Z,947.99
2018-06-11T14:51:32.713Z,948.01
2018-06-11T14:53:59.018Z,947.92
2018-06-11T14:56:25.317Z,947.89
2018-06-11T14:58:51.608Z,947.91
2018-06-11T15:01:17.902Z,947.85
2018-06-11T15:03:44.223Z,947.81
2018-06-11T15:06:10.489Z,947.82
2018-06-11T15:08:36.798Z,947.79
2018-06-11T15:11:03.078Z,947.77
2018-06-11T15:13:29.363Z,947.83
2018-06-11T15:15:55.718Z,947.73
2018-06-11T15:18:22.015Z,947.75
2018-06-11T15:20:48.445Z,947.83
2018-06-11T15:23:14.678Z,947.84
2018-06-11T15:25:40.970Z,947.97
2018-06-11T15:28:07.258Z,947.85
2018-06-11T15:30:33.570Z,948.06
2018-06-11T15:32:59.865Z,948.05
2018-06-11T15:35:26.163Z,948.08
2018-06-11T15:37:52.466Z,948.13
2018-06-11T15:40:18.756Z,948.00
2018-06-11T15:42:45.053Z,947.89
2018-06-11T15:45:11.349Z,947.97
2018-06-11T15:47:37.649Z,947.99
2018-06-11T15:50:03.974Z,947.95
2018-06-11T15:52:30.271Z,948.02
2018-06-11T15:54:56.560Z,947.82
2018-06-11T15:57:22.857Z,947.81
2018-06-11T15:59:49.180Z,947.79
2018-06-11T16:02:15.473Z,947.90
2018-06-11T16:04:41.781Z,947.86
2018-06-11T16:07:08.097Z,947.90
2018-06-11T16:09:34.395Z,947.97
2018-06-11T16:12:00.713Z,947.90
2018-06-11T16:14:26.999Z,947.97
2018-06-11T16:16:53.298Z,947.93
2018-06-11T16:19:19.588Z,947.86
2018-06-11T16:21:45.877Z,948.01
2018-06-11T16:24:12.158Z,948.04
2018-06-11T16:26:38.454Z,948.08
2018-06-11T16:29:04.759Z,948.00
2018-06-11T16:31:31.047Z,948.01
2018-06-11T16:33:57.343Z,948.07
2018-06-11T16:36:23.642Z,948.01
2018-06-11T16:38:49.936Z,948.06
2018-06-11T16:41:16.224Z,948.04
2018-06-11T16:43:42.511Z,948.02
2018-06-11T16:46:08.799Z,948.09
2018-06-11T16:48:35.093Z,947.97
2018-06-11T16:51:01.393Z,948.01
2018-06-11T16:53:27.679Z,948.01
2018-06-11T16:55:53.989Z,948.05
2018-06-11T16:58:20.287Z,948.05
2018-06-11T17:00:46.580Z,948.06
2018-06-11T17:03:12.884Z,948.07
2018-06-11T17:05:39.179Z,948.03
2018-06-11T17:08:05.501Z,948.16
2018-06-11T17:10:31.806Z,948.02
2018-06-11T17:12:58.092Z,948.11
2018-06-11T17:15:24.382Z,948.14
2018-06-11T17:17:50.674Z,948.11
2018-06-11T17:20:17.038Z,948.08
2018-06-11T17:22:43.279Z,948.07
2018-06-11T17:25:09.573Z,948.05
2018-06-11T17:27:35.906Z,948.13
2018-06-11T17:30:02.206Z,948.16
2018-06-11T17:32:28.498Z,948.09
2018-06-11T17:34:54.795Z,948.09
2018-06-11T17:37:21.084Z,948.10
2018-06-11T17:39:47.388Z,948.08
2018-06-11T17:42:13.679Z,948.09
2018-06-11T17:44:40.033Z,948.12
2018-06-11T17:47:06.268Z,948.11
2018-06-11T17:49:32.564Z,948.15
2018-06-11T17:51:58.862Z,948.14
2018-06-11T17:54:25.170Z,948.19
2018-06-11T17:56:51.439Z,948.21
2018-06-11T17:59:17.737Z,948.27
2018-06-11T18:01:44.023Z,948.29
2018-06-11T18:04:10.403Z,948.25
2018-06-11T18:06:36.653Z,948.38
2018-06-11T18:09:02.957Z,948.31
2018-06-11T18:11:29.287Z,948.38
2018-06-11T18:13:55.616Z,948.39
2018-06-11T18:16:21.903Z,948.41
2018-06-11T18:18:48.195Z,948.40
2018-06-11T18:21:14.540Z,948.45
2018-06-11T18:23:42.176Z,948.52
2018-06-11T18:26:07.124Z,948.57
2018-06-11T18:28:33.418Z,948.59
2018-06-11T18:30:59.715Z,948.68
2018-06-11T18:33:26.001Z,948.75
2018-06-11T18:35:52.305Z,948.84
2018-06-11T18:38:18.601Z,948.84
2018-06-11T18:40:44.932Z,948.94
2018-06-11T18:43:11.261Z,948.90
2018-06-11T18:45:37.546Z,948.91
2018-06-11T18:48:03.881Z,948.95
2018-06-11T18:50:30.249Z,948.97
2018-06-11T18:52:56.535Z,949.00
2018-06-11T18:55:22.828Z,949.05
2018-06-11T18:57:49.135Z,949.10
2018-06-11T19:00:15.414Z,949.09
2018-06-11T19:02:41.715Z,949.14
2018-06-11T19:05:07.998Z,949.10
2018-06-11T19:07:34.301Z,949.13
2018-06-11T19:10:00.591Z,949.11
2018-06-11T19:12:26.888Z,949.18
2018-06-11T19:14:53.176Z,949.22
2018-06-11T19:17:19.470Z,949.18
2018-06-11T19:19:45.765Z,949.30
2018-06-11T19:22:12.055Z,949.29
2018-06-11T19:24:38.355Z,949.25
2018-06-11T19:27:04.649Z,949.33
2018-06-11T19:29:30.951Z,949.25
2018-06-11T19:31:57.250Z,949.31
2018-06-11T19:34:23.555Z,949.28
2018-06-11T19:36:49.857Z,949.35
2018-06-11T19:39:16.146Z,949.34
2018-06-11T19:41:42.470Z,949.31
2018-06-11T19:44:08.761Z,949.24
2018-06-11T19:46:35.051Z,949.28
2018-06-11T19:49:01.340Z,949.25
2018-06-11T19:51:27.634Z,949.28
2018-06-11T19:53:53.926Z,949.27
2018-06-11T19:56:20.211Z,949.20
2018-06-11T19:58:46.550Z,949.17
2018-06-11T20:01:12.843Z,949.18
2018-06-11T20:03:39.134Z,949.17
2018-06-11T20:06:05.428Z,949.18
2018-06-11T20:08:31.760Z,949.13
2018-06-11T20:10:58.057Z,949.11
2018-06-11T20:13:24.353Z,949.18
2018-06-11T20:15:50.720Z,949.12
2018-06-11T20:18:16.975Z,949.12
2018-06-11T20:20:43.317Z,949.08
2018-06-11T20:23:09.609Z,949.05
2018-06-11T20:25:35.895Z,949.09
2018-06-11T20:28:02.191Z,949.09
2018-06-11T20:30:28.515Z,949.13
2018-06-11T20:32:54.808Z,949.14
2018-06-11T20:35:21.100Z,949.13
2018-06-11T20:37:47.417Z,949.13
2018-06-11T20:40:13.703Z,949.14
2018-06-11T20:42:39.996Z,949.21
2018-06-11T20:45:06.284Z,949.16
2018-06-11T20:47:32.878Z,949.16
2018-06-11T20:49:59.206Z,949.18
2018-06-11T20:52:25.536Z,949.15
2018-06-11T20:54:51.838Z,949.14
2018-06-11T20:57:18.129Z,949.15
2018-06-11T20:59:44.420Z,949.10
2018-06-11T21:02:10.711Z,949.16
2018-06-11T21:04:36.998Z,949.10
2018-06-11T21:07:03.295Z,949.15
2018-06-11T21:09:29.589Z,949.16
2018-06-11T21:11:55.885Z,949.17
2018-06-11T21:14:22.180Z,949.20
2018-06-11T21:16:48.477Z,949.16
2018-06-11T21:19:14.770Z,949.19
2018-06-11T21:21:41.102Z,949.20
2018-06-11T21:24:07.409Z,949.20
2018-06-11T21:26:33.685Z,949.25
2018-06-11T21:28:59.984Z,949.21
2018-06-11T21:31:26.274Z,949.29
2018-06-11T21:33:52.562Z,949.32
2018-06-11T21:36:18.886Z,949.28
2018-06-11T21:38:45.216Z,949.32
2018-06-11T21:41:11.510Z,949.29
2018-06-11T21:43:37.806Z,949.32
2018-06-11T21:46:04.100Z,949.30
2018-06-11T21:48:30.399Z,949.26
2018-06-11T21:50:56.723Z,949.29
2018-06-11T21:53:23.014Z,949.33
2018-06-11T21:55:49.310Z,949.37
2018-06-11T21:58:15.606Z,949.32
2018-06-11T22:00:41.907Z,949.22
2018-06-11T22:03:08.284Z,949.19
2018-06-11T22:05:34.571Z,949.20
2018-06-11T22:08:00.884Z,949.22
2018-06-11T22:10:27.187Z,949.17
2018-06-11T22:12:53.505Z,949.10
2018-06-11T22:15:19.844Z,949.13
2018-06-11T22:17:46.143Z,949.09
2018-06-11T22:20:12.441Z,948.99
2018-06-11T22:22:38.725Z,949.07
2018-06-11T22:25:05.019Z,949.01
2018-06-11T22:27:31.340Z,949.02
2018-06-11T22:29:57.640Z,949.00
2018-06-11T22:32:23.989Z,949.07
2018-06-11T22:34:50.283Z,949.08
2018-06-11T22:37:16.571Z,949.11
2018-06-11T22:39:42.909Z,949.11
2018-06-11T22:42:09.200Z,949.11
2018-06-11T22:44:35.501Z,949.16
2018-06-11T22:47:01.803Z,949.09
2018-06-11T22:49:28.094Z,949.13
2018-06-11T22:51:54.390Z,949.06
2018-06-11T22:54:20.723Z,949.05
2018-06-11T22:56:47.008Z,949.12
2018-06-11T22:59:13.299Z,949.07
2018-06-11T23:01:39.593Z,949.08
2018-06-11T23:04:05.886Z,949.14
2018-06-11T23:06:32.178Z,949.11
2018-06-11T23:08:58.472Z,949.07
2018-06-11T23:11:24.778Z,949.00
2018-06-11T23:13:51.104Z,949.04
2018-06-11T23:16:17.403Z,949.05
2018-06-11T23:18:43.696Z,949.07
2018-06-11T23:21:09.996Z,948.97
2018-06-11T23:23:36.344Z,948.97
2018-06-11T23:26:02.637Z,949.01
2018-06-11T23:28:28.923Z,948.98
2018-06-11T23:30:55.220Z,949.05
2018-06-11T23:33:21.505Z,949.04
2018-06-11T23:35:47.803Z,948.97
2018-06-11T23:38:14.092Z,949.00
2018-06-11T23:40:40.392Z,948.95
2018-06-11T23:43:06.679Z,948.96
2018-06-11T23:45:32.969Z,948.97
2018-06-11T23:47:59.259Z,948.96
2018-06-11T23:50:25.552Z,948.94
2018-06-11T23:52:51.842Z,948.89
2018-06-11T23:55:18.178Z,948.87
2018-06-11T23:57:44.462Z,948.80
